Time;durP1;ratioP1;P1;durP2;ratioP2;P2;SDS_P1;SDS_P2;PMS_P1;PMS_P2;Temp;Humidity;BMP_temperature;BMP_pressure;BME280_temperature;BME280_humidity;BME280_pressure;Samples;Min_cycle;Max_cycle;Signal;HPM_P1;HPM_P2
2022/01/26 00:07:48;;;;;;;;;;;;;;;;;;4994806;28;20135;-69
2022/01/26 00:10:13;;;;;;;;;;;;;;;;;;4992553;28;20134;-69
2022/01/26 00:12:38;;;;;;;;;;;;;;;;;;4991497;28;20439;-70
2022/01/26 00:15:03;;;;;;;;;;;;;;;;;;4988759;28;20431;-69
2022/01/26 00:17:28;;;;;;;;;;;;;;;;;;4997897;28;20003;-69
2022/01/26 00:20:21;;;;;;;;;;;;;;;;;;5036013;28;20466;-69
2022/01/26 00:38:40;;;;;;;;;;;;;;;;;;5040292;28;19982;-69
2022/01/26 00:41:11;;;;;;;;;;;;;;;;;;5041816;28;20042;-69
2022/01/26 00:43:36;;;;;;;;;;;;;;;;;;5041329;28;20200;-69
2022/01/26 00:46:03;;;;;;;;;;;;;;;;;;5041411;28;19913;-70
2022/01/26 00:48:30;;;;;;;;;;;;;;;;;;5041331;28;19912;-70
2022/01/26 00:50:59;;;;;;;;;;;;;;;;;;5040022;28;19935;-70
2022/01/26 00:53:30;;;;;;;;;;;;;;;;;;5025182;28;20376;-70
2022/01/26 00:55:55;;;;;;;;;;;;;;;;;;5038570;28;20183;-70
2022/01/26 00:58:20;;;;;;;;;;;;;;;;;;5040927;28;20147;-69
2022/01/26 01:00:45;;;;;;;;;;;;;;;;;;5040471;28;19963;-70
2022/01/26 01:03:11;;;;;;;;;;;;;;;;;;5039628;28;19921;-69
2022/01/26 01:05:43;;;;;;;;;;;;;;;;;;5040781;28;19912;-70
2022/01/26 01:08:17;;;;;;;;;;;;;;;;;;5033119;28;20703;-69
2022/01/26 01:10:45;;;;;;;;;;;;;;;;;;5040905;28;19938;-69
2022/01/26 01:13:15;;;;;;;;;;;;;;;;;;5032286;28;20274;-70
2022/01/26 01:15:40;;;;;;;;;;;;;;;;;;5040828;28;19943;-69
2022/01/26 01:18:15;;;;;;;;;;;;;;;;;;5039990;28;19917;-70
2022/01/26 01:21:07;;;;;;;;;;;;;;;;;;5038147;28;19916;-70
2022/01/26 01:29:08;;;;;;;;;;;;;;;;;;5038249;28;19921;-70
2022/01/26 01:34:04;;;;;;;;;;;;;;;;;;5036271;28;20030;-70
2022/01/26 01:36:29;;;;;;;;;;;;;;;;;;5039459;28;20400;-70
2022/01/26 01:38:55;;;;;;;;;;;;;;;;;;5038420;28;20032;-70
2022/01/26 01:41:20;;;;;;;;;;;;;;;;;;5021650;28;20524;-70
2022/01/26 01:43:45;;;;;;;;;;;;;;;;;;5037952;28;19923;-70
2022/01/26 01:46:10;;;;;;;;;;;;;;;;;;5038751;28;20051;-70
2022/01/26 01:48:35;;;;;;;;;;;;;;;;;;5039695;28;20097;-70
2022/01/26 01:51:03;;;;;;;;;;;;;;;;;;5038846;28;20101;-70
2022/01/26 01:53:40;;;;;;;;;;;;;;;;;;5040003;28;20144;-69
2022/01/26 01:56:06;;;;;;;;;;;;;;;;;;5040076;28;19913;-70
2022/01/26 01:58:31;;;;;;;;;;;;;;;;;;5021362;28;19939;-70
2022/01/26 02:00:56;;;;;;;;;;;;;;;;;;5036090;28;19916;-70
2022/01/26 02:03:21;;;;;;;;;;;;;;;;;;5034847;28;19928;-69
2022/01/26 02:05:46;;;;;;;;;;;;;;;;;;5038626;28;20012;-69
2022/01/26 02:08:12;;;;;;;;;;;;;;;;;;5040600;28;20118;-69
2022/01/26 02:10:37;;;;;;;;;;;;;;;;;;5036432;28;19914;-69
2022/01/26 02:13:08;;;;;;;;;;;;;;;;;;5042764;28;19959;-70
2022/01/26 02:15:43;;;;;;;;;;;;;;;;;;5043062;28;19921;-70
2022/01/26 02:55:51;;;;;;;;;;;;;;;;;;4956160;28;19997;-69
2022/01/26 03:03:37;;;;;;;;;;;;;;;;;;4985807;28;19992;-69
2022/01/26 03:06:08;;;;;;;;;;;;;;;;;;4998563;28;19913;-70
2022/01/26 03:08:38;;;;;;;;;;;;;;;;;;5000595;28;20417;-70
2022/01/26 03:11:12;;;;;;;;;;;;;;;;;;5001552;28;20278;-69
2022/01/26 03:13:42;;;;;;;;;;;;;;;;;;5002093;28;19917;-69
2022/01/26 03:16:14;;;;;;;;;;;;;;;;;;5003181;28;19917;-69
2022/01/26 03:21:37;;;;;;;;;;;;;;;;;;5001755;28;19933;-69
2022/01/26 03:30:06;;;;;;;;;;;;;;;;;;4978941;28;19921;-69
2022/01/26 03:32:57;;;;;;;;;;;;;;;;;;4979013;28;19964;-69
2022/01/26 03:35:40;;;;;;;;;;;;;;;;;;4979239;28;20295;-70
2022/01/26 03:38:06;;;;;;;;;;;;;;;;;;4978161;28;20409;-69
2022/01/26 03:40:34;;;;;;;;;;;;;;;;;;4979525;28;19913;-74
2022/01/26 03:43:00;;;;;;;;;;;;;;;;;;4979309;28;20228;-70
2022/01/26 03:45:26;;;;;;;;;;;;;;;;;;4971962;28;20191;-70
2022/01/26 03:47:51;;;;;;;;;;;;;;;;;;4973596;28;20143;-70
2022/01/26 03:50:16;;;;;;;;;;;;;;;;;;4972424;28;19929;-70
2022/01/26 03:52:41;;;;;;;;;;;;;;;;;;4976422;28;19925;-70
2022/01/26 03:55:06;;;;;;;;;;;;;;;;;;4975275;28;20040;-70
2022/01/26 03:57:31;;;;;;;;;;;;;;;;;;4976303;28;19949;-70
2022/01/26 03:59:56;;;;;;;;;;;;;;;;;;4972885;28;19914;-70
2022/01/26 04:02:22;;;;;;;;;;;;;;;;;;4976229;28;20298;-70
2022/01/26 04:04:52;;;;;;;;;;;;;;;;;;5016045;28;19925;-70
2022/01/26 04:07:18;;;;;;;;;;;;;;;;;;5017733;28;19913;-69
2022/01/26 04:09:43;;;;;;;;;;;;;;;;;;5018428;28;19968;-69
2022/01/26 04:12:08;;;;;;;;;;;;;;;;;;5015992;28;19939;-69
2022/01/26 04:14:34;;;;;;;;;;;;;;;;;;5012373;28;19913;-69
2022/01/26 04:17:00;;;;;;;;;;;;;;;;;;5012586;28;19913;-69
2022/01/26 04:19:27;;;;;;;;;;;;;;;;;;5019299;28;20290;-69
2022/01/26 04:22:13;;;;;;;;;;;;;;;;;;5016133;28;19925;-69
2022/01/26 04:24:44;;;;;;;;;;;;;;;;;;5014400;28;20007;-69
2022/01/26 04:27:22;;;;;;;;;;;;;;;;;;5017338;28;19923;-69
2022/01/26 04:29:49;;;;;;;;;;;;;;;;;;5017860;28;19917;-69
2022/01/26 04:32:15;;;;;;;;;;;;;;;;;;5019333;28;20552;-70
2022/01/26 04:34:40;;;;;;;;;;;;;;;;;;5017436;28;19924;-70
2022/01/26 04:37:28;;;;;;;;;;;;;;;;;;5019806;28;20000;-69
2022/01/26 04:39:58;;;;;;;;;;;;;;;;;;5014746;28;20114;-69
2022/01/26 04:42:37;;;;;;;;;;;;;;;;;;5017679;28;19913;-70
2022/01/26 04:45:07;;;;;;;;;;;;;;;;;;5017031;28;20109;-69
2022/01/26 04:47:39;;;;;;;;;;;;;;;;;;5016941;28;19917;-69
2022/01/26 04:50:05;;;;;;;;;;;;;;;;;;5014822;28;20044;-69
2022/01/26 04:52:30;;;;;;;;;;;;;;;;;;5020538;28;20288;-70
2022/01/26 04:54:55;;;;;;;;;;;;;;;;;;5016907;28;19913;-70
2022/01/26 04:57:20;;;;;;;;;;;;;;;;;;5017773;28;19917;-69
2022/01/26 04:59:45;;;;;;;;;;;;;;;;;;5017493;28;19920;-70
2022/01/26 05:02:10;;;;;;;;;;;;;;;;;;5022554;28;20361;-71
2022/01/26 05:04:36;;;;;;;;;;;;;;;;;;5036430;28;19917;-71
2022/01/26 05:07:01;;;;;;;;;;;;;;;;;;5038244;28;20035;-70
2022/01/26 05:09:26;;;;;;;;;;;;;;;;;;5037250;28;19913;-70
2022/01/26 05:11:54;;;;;;;;;;;;;;;;;;5035770;28;20499;-70
2022/01/26 05:14:19;;;;;;;;;;;;;;;;;;5033707;28;20340;-70
2022/01/26 05:16:44;;;;;;;;;;;;;;;;;;5035049;28;19916;-70
2022/01/26 05:19:09;;;;;;;;;;;;;;;;;;5035806;28;19967;-70
2022/01/26 05:21:35;;;;;;;;;;;;;;;;;;5036258;28;20300;-70
2022/01/26 05:24:00;;;;;;;;;;;;;;;;;;5036402;28;20178;-71
2022/01/26 05:26:28;;;;;;;;;;;;;;;;;;5035911;28;20198;-70
2022/01/26 05:28:53;;;;;;;;;;;;;;;;;;5036727;28;19913;-70
2022/01/26 05:31:18;;;;;;;;;;;;;;;;;;5036820;28;19912;-70
2022/01/26 05:33:54;;;;;;;;;;;;;;;;;;5036752;28;20401;-70
2022/01/26 05:36:19;;;;;;;;;;;;;;;;;;5038378;28;19920;-70
2022/01/26 05:38:44;;;;;;;;;;;;;;;;;;5036496;28;20030;-71
2022/01/26 05:41:10;;;;;;;;;;;;;;;;;;5036427;28;20011;-70
2022/01/26 05:43:35;;;;;;;;;;;;;;;;;;5036812;28;20017;-70
2022/01/26 05:46:14;;;;;;;;;;;;;;;;;;5038621;28;20148;-70
2022/01/26 05:48:44;;;;;;;;;;;;;;;;;;5038981;28;20085;-71
2022/01/26 05:51:10;;;;;;;;;;;;;;;;;;5039864;28;20397;-70
2022/01/26 05:53:35;;;;;;;;;;;;;;;;;;5040794;28;20489;-70
2022/01/26 05:56:00;;;;;;;;;;;;;;;;;;5039919;28;19924;-70
2022/01/26 05:58:26;;;;;;;;;;;;;;;;;;5039732;28;21265;-70
2022/01/26 06:00:51;;;;;;;;;;;;;;;;;;5039854;28;19943;-70
2022/01/26 06:03:16;;;;;;;;;;;;;;;;;;5045509;28;19981;-70
2022/01/26 06:05:41;;;;;;;;;;;;;;;;;;5038622;28;19978;-70
2022/01/26 06:08:06;;;;;;;;;;;;;;;;;;5041037;28;19986;-70
2022/01/26 06:10:31;;;;;;;;;;;;;;;;;;5040223;28;19982;-70
2022/01/26 06:12:56;;;;;;;;;;;;;;;;;;5039196;28;20400;-70
2022/01/26 06:15:21;;;;;;;;;;;;;;;;;;5039626;28;19916;-70
2022/01/26 06:17:47;;;;;;;;;;;;;;;;;;5039891;28;19921;-70
2022/01/26 06:20:12;;;;;;;;;;;;;;;;;;5040568;28;19916;-70
2022/01/26 06:22:37;;;;;;;;;;;;;;;;;;5038276;28;20289;-70
2022/01/26 06:25:05;;;;;;;;;;;;;;;;;;5037882;28;20355;-70
2022/01/26 06:27:31;;;;;;;;;;;;;;;;;;5036991;28;19921;-70
2022/01/26 06:29:56;;;;;;;;;;;;;;;;;;5040058;28;19921;-70
2022/01/26 06:32:21;;;;;;;;;;;;;;;;;;5040392;28;19917;-70
2022/01/26 06:34:46;;;;;;;;;;;;;;;;;;5040989;28;19916;-71
2022/01/26 06:37:11;;;;;;;;;;;;;;;;;;5040444;28;19923;-70
2022/01/26 06:39:36;;;;;;;;;;;;;;;;;;5038552;28;20058;-70
2022/01/26 06:42:03;;;;;;;;;;;;;;;;;;5038601;28;20131;-70
2022/01/26 06:44:33;;;;;;;;;;;;;;;;;;5040412;28;20019;-70
2022/01/26 06:49:36;;;;;;;;;;;;;;;;;;5040809;28;20360;-71
2022/01/26 06:52:01;;;;;;;;;;;;;;;;;;5022523;28;19912;-70
2022/01/26 06:54:26;;;;;;;;;;;;;;;;;;5038561;28;20169;-70
2022/01/26 06:56:51;;;;;;;;;;;;;;;;;;5037970;28;19924;-70
2022/01/26 06:59:16;;;;;;;;;;;;;;;;;;5038931;28;19920;-71
2022/01/26 07:01:41;;;;;;;;;;;;;;;;;;5038572;28;20057;-70
2022/01/26 07:04:07;;;;;;;;;;;;;;;;;;5037942;28;20185;-71
2022/01/26 07:06:32;;;;;;;;;;;;;;;;;;5039154;28;19913;-70
2022/01/26 07:08:57;;;;;;;;;;;;;;;;;;5036273;28;19927;-70
2022/01/26 07:11:22;;;;;;;;;;;;;;;;;;5039646;28;19978;-71
2022/01/26 07:13:47;;;;;;;;;;;;;;;;;;5037272;28;20515;-71
2022/01/26 07:21:40;;;;;;;;;;;;;;;;;;5039307;28;19932;-71
2022/01/26 07:24:05;;;;;;;;;;;;;;;;;;5032602;28;19920;-71
2022/01/26 07:26:31;;;;;;;;;;;;;;;;;;5033282;28;19916;-71
2022/01/26 07:28:56;;;;;;;;;;;;;;;;;;5033129;28;19921;-72
2022/01/26 07:31:22;;;;;;;;;;;;;;;;;;5034004;28;20424;-70
2022/01/26 07:33:53;;;;;;;;;;;;;;;;;;5035790;28;19920;-71
2022/01/26 07:36:18;;;;;;;;;;;;;;;;;;5036634;28;20380;-71
2022/01/26 07:38:43;;;;;;;;;;;;;;;;;;5038461;28;20397;-71
2022/01/26 07:41:08;;;;;;;;;;;;;;;;;;5041969;28;20368;-71
2022/01/26 07:43:33;;;;;;;;;;;;;;;;;;5039443;28;19913;-76
2022/01/26 07:45:58;;;;;;;;;;;;;;;;;;5040778;28;20407;-70
2022/01/26 07:48:24;;;;;;;;;;;;;;;;;;5037323;28;19944;-70
2022/01/26 07:50:51;;;;;;;;;;;;;;;;;;5032545;28;19917;-70
2022/01/26 07:53:17;;;;;;;;;;;;;;;;;;5032247;28;20024;-70
2022/01/26 07:55:42;;;;;;;;;;;;;;;;;;5031490;28;19984;-70
2022/01/26 07:58:11;;;;;;;;;;;;;;;;;;5036869;28;20103;-70
2022/01/26 08:00:36;;;;;;;;;;;;;;;;;;5031600;28;19920;-70
2022/01/26 08:03:01;;;;;;;;;;;;;;;;;;5034593;28;20520;-71
2022/01/26 08:05:26;;;;;;;;;;;;;;;;;;5036474;28;19925;-71
2022/01/26 08:07:52;;;;;;;;;;;;;;;;;;5037105;28;19913;-71
2022/01/26 08:10:17;;;;;;;;;;;;;;;;;;5038348;28;19912;-69
2022/01/26 08:12:42;;;;;;;;;;;;;;;;;;5037150;28;19982;-69
2022/01/26 08:15:10;;;;;;;;;;;;;;;;;;5026948;28;19920;-70
2022/01/26 08:17:35;;;;;;;;;;;;;;;;;;5019263;28;19921;-69
2022/01/26 08:20:00;;;;;;;;;;;;;;;;;;5036481;28;19923;-70
2022/01/26 08:22:27;;;;;;;;;;;;;;;;;;5035064;28;21468;-69
2022/01/26 08:24:52;;;;;;;;;;;;;;;;;;5029949;28;19999;-69
2022/01/26 08:27:20;;;;;;;;;;;;;;;;;;5031442;28;20023;-69
2022/01/26 08:29:49;;;;;;;;;;;;;;;;;;5037602;28;20190;-69
2022/01/26 08:32:14;;;;;;;;;;;;;;;;;;5036894;28;20342;-69
2022/01/26 08:34:40;;;;;;;;;;;;;;;;;;5037467;28;20412;-69
2022/01/26 08:37:05;;;;;;;;;;;;;;;;;;5038606;28;20100;-69
2022/01/26 08:39:30;;;;;;;;;;;;;;;;;;5031211;28;20345;-69
2022/01/26 08:41:55;;;;;;;;;;;;;;;;;;5032152;28;19979;-70
2022/01/26 08:44:20;;;;;;;;;;;;;;;;;;5030775;28;20467;-69
2022/01/26 08:46:45;;;;;;;;;;;;;;;;;;5026060;28;19963;-69
2022/01/26 08:49:10;;;;;;;;;;;;;;;;;;5033240;28;20277;-69
2022/01/26 08:51:36;;;;;;;;;;;;;;;;;;5031906;28;20446;-69
2022/01/26 08:54:01;;;;;;;;;;;;;;;;;;5033943;28;19927;-69
2022/01/26 08:56:26;;;;;;;;;;;;;;;;;;5037622;28;20004;-69
2022/01/26 08:58:51;;;;;;;;;;;;;;;;;;5033837;28;20013;-70
2022/01/26 09:01:16;;;;;;;;;;;;;;;;;;5030969;28;19917;-69
2022/01/26 09:03:43;;;;;;;;;;;;;;;;;;5034657;28;19921;-69
2022/01/26 09:06:08;;;;;;;;;;;;;;;;;;5035804;28;20050;-69
2022/01/26 09:08:33;;;;;;;;;;;;;;;;;;5038721;28;19948;-69
2022/01/26 09:11:01;;;;;;;;;;;;;;;;;;5036927;28;20289;-69
2022/01/26 09:13:26;;;;;;;;;;;;;;;;;;5035973;28;20044;-69
2022/01/26 09:15:52;;;;;;;;;;;;;;;;;;5037921;28;19999;-69
2022/01/26 09:18:30;;;;;;;;;;;;;;;;;;5038118;28;19978;-69
2022/01/26 09:20:55;;;;;;;;;;;;;;;;;;5035584;28;19921;-69
2022/01/26 09:23:20;;;;;;;;;;;;;;;;;;5035199;28;19943;-69
2022/01/26 09:25:45;;;;;;;;;;;;;;;;;;5034613;28;19928;-69
2022/01/26 09:28:10;;;;;;;;;;;;;;;;;;5035779;28;19923;-68
2022/01/26 09:30:35;;;;;;;;;;;;;;;;;;5032800;28;20195;-69
2022/01/26 09:33:00;;;;;;;;;;;;;;;;;;5035840;28;20150;-69
2022/01/26 09:35:25;;;;;;;;;;;;;;;;;;5037544;28;19913;-69
2022/01/26 09:37:51;;;;;;;;;;;;;;;;;;5036251;28;19983;-69
2022/01/26 09:40:16;;;;;;;;;;;;;;;;;;5030855;28;19924;-69
2022/01/26 09:42:41;;;;;;;;;;;;;;;;;;5031988;28;20414;-70
2022/01/26 09:45:06;;;;;;;;;;;;;;;;;;5034387;28;20008;-69
2022/01/26 09:47:31;;;;;;;;;;;;;;;;;;5036297;28;19916;-69
2022/01/26 09:49:56;;;;;;;;;;;;;;;;;;5033954;28;19944;-69
2022/01/26 09:52:34;;;;;;;;;;;;;;;;;;5034544;28;20005;-69
2022/01/26 09:54:59;;;;;;;;;;;;;;;;;;5036014;28;20077;-69
2022/01/26 09:57:24;;;;;;;;;;;;;;;;;;5036655;28;19917;-69
2022/01/26 09:59:49;;;;;;;;;;;;;;;;;;5037370;28;19913;-69
2022/01/26 10:02:14;;;;;;;;;;;;;;;;;;5034190;28;20602;-69
2022/01/26 10:04:40;;;;;;;;;;;;;;;;;;5035120;28;20166;-69
2022/01/26 10:07:30;;;;;;;;;;;;;;;;;;5037904;28;20145;-69
2022/01/26 10:15:28;;;;;;;;;;;;;;;;;;5036474;28;19916;-70
2022/01/26 10:17:53;;;;;;;;;;;;;;;;;;5035137;28;19931;-69
2022/01/26 10:20:19;;;;;;;;;;;;;;;;;;5035323;28;20271;-69
2022/01/26 10:22:44;;;;;;;;;;;;;;;;;;5037372;28;19924;-69
2022/01/26 10:25:09;;;;;;;;;;;;;;;;;;5034397;28;19909;-69
2022/01/26 10:27:35;;;;;;;;;;;;;;;;;;5036412;28;20445;-69
2022/01/26 10:30:00;;;;;;;;;;;;;;;;;;5015074;28;19912;-69
2022/01/26 10:32:25;;;;;;;;;;;;;;;;;;5037370;28;20416;-69
2022/01/26 10:34:50;;;;;;;;;;;;;;;;;;5038039;28;20411;-69
2022/01/26 10:37:15;;;;;;;;;;;;;;;;;;5038966;28;20487;-69
2022/01/26 10:39:48;;;;;;;;;;;;;;;;;;5037778;28;20350;-69
2022/01/26 10:42:17;;;;;;;;;;;;;;;;;;5032878;28;19966;-70
2022/01/26 10:44:54;;;;;;;;;;;;;;;;;;5035191;28;19974;-72
2022/01/26 10:47:19;;;;;;;;;;;;;;;;;;5033334;28;19997;-70
2022/01/26 10:52:18;;;;;;;;;;;;;;;;;;5030957;28;19925;-70
2022/01/26 10:54:45;;;;;;;;;;;;;;;;;;5036562;28;19964;-70
2022/01/26 10:57:10;;;;;;;;;;;;;;;;;;5032726;28;20120;-70
2022/01/26 10:59:35;;;;;;;;;;;;;;;;;;5029685;28;19917;-69
2022/01/26 11:02:00;;;;;;;;;;;;;;;;;;5034573;28;20079;-70
2022/01/26 11:04:26;;;;;;;;;;;;;;;;;;5038216;28;19952;-70
2022/01/26 11:06:51;;;;;;;;;;;;;;;;;;5036957;28;19970;-70
2022/01/26 11:09:17;;;;;;;;;;;;;;;;;;5034559;28;19974;-69
2022/01/26 11:11:43;;;;;;;;;;;;;;;;;;5035551;28;20312;-70
2022/01/26 11:14:08;;;;;;;;;;;;;;;;;;5033270;28;19917;-70
2022/01/26 11:16:36;;;;;;;;;;;;;;;;;;5034816;28;19921;-70
2022/01/26 11:19:01;;;;;;;;;;;;;;;;;;5025006;28;20067;-70
2022/01/26 11:21:27;;;;;;;;;;;;;;;;;;5032671;28;19943;-70
2022/01/26 11:23:52;;;;;;;;;;;;;;;;;;5030257;28;20015;-69
2022/01/26 11:26:18;;;;;;;;;;;;;;;;;;5027875;28;20113;-69
2022/01/26 11:28:43;;;;;;;;;;;;;;;;;;5029153;28;19921;-70
2022/01/26 11:31:08;;;;;;;;;;;;;;;;;;5028739;28;19920;-69
2022/01/26 11:33:34;;;;;;;;;;;;;;;;;;5029488;28;19921;-69
2022/01/26 11:35:59;;;;;;;;;;;;;;;;;;5029432;28;19916;-73
2022/01/26 11:46:26;;;;;;;;;;;;;;;;;;5026227;28;19931;-68
2022/01/26 11:48:52;;;;;;;;;;;;;;;;;;5029179;28;19924;-69
2022/01/26 11:51:17;;;;;;;;;;;;;;;;;;5029533;28;19921;-69
2022/01/26 11:53:43;;;;;;;;;;;;;;;;;;5029479;28;19928;-69
2022/01/26 11:56:08;;;;;;;;;;;;;;;;;;5027555;28;19923;-69
2022/01/26 11:58:34;;;;;;;;;;;;;;;;;;5029016;28;20296;-68
2022/01/26 12:01:25;;;;;;;;;;;;;;;;;;5028047;28;19934;-68
2022/01/26 12:03:48;;;;;;;;;;;;;;;;;;5026822;28;19929;-69
2022/01/26 12:06:20;;;;;;;;;;;;;;;;;;5033204;28;20316;-69
2022/01/26 12:08:45;;;;;;;;;;;;;;;;;;5031722;28;19920;-69
2022/01/26 12:11:10;;;;;;;;;;;;;;;;;;5026913;28;20485;-69
2022/01/26 12:13:39;;;;;;;;;;;;;;;;;;5030029;28;19917;-69
2022/01/26 12:16:08;;;;;;;;;;;;;;;;;;5029436;28;20098;-70
2022/01/26 12:34:37;;;;;;;;;;;;;;;;;;5036830;28;19939;-70
2022/01/26 12:42:55;;;;;;;;;;;;;;;;;;4966588;28;20534;-69
2022/01/26 12:45:17;;;;;;;;;;;;;;;;;;4965990;28;20342;-70
2022/01/26 12:47:42;;;;;;;;;;;;;;;;;;4966892;28;19918;-70
2022/01/26 12:50:07;;;;;;;;;;;;;;;;;;4965877;28;19918;-69
2022/01/26 12:52:32;;;;;;;;;;;;;;;;;;4966313;28;19969;-69
2022/01/26 12:54:57;;;;;;;;;;;;;;;;;;4965828;28;19961;-69
2022/01/26 12:57:22;;;;;;;;;;;;;;;;;;4966616;28;20426;-69
2022/01/26 12:59:47;;;;;;;;;;;;;;;;;;4966475;28;20871;-69
2022/01/26 13:02:13;;;;;;;;;;;;;;;;;;4971358;28;20425;-69
2022/01/26 13:04:38;;;;;;;;;;;;;;;;;;4976601;28;19917;-69
2022/01/26 13:07:03;;;;;;;;;;;;;;;;;;4976723;28;20444;-69
2022/01/26 13:09:29;;;;;;;;;;;;;;;;;;4973416;28;20510;-70
2022/01/26 13:11:54;;;;;;;;;;;;;;;;;;4971802;28;19932;-70
2022/01/26 13:14:25;;;;;;;;;;;;;;;;;;4968327;28;20461;-69
2022/01/26 13:16:50;;;;;;;;;;;;;;;;;;4967537;28;20159;-70
2022/01/26 13:19:35;;;;;;;;;;;;;;;;;;5004466;28;19921;-69
2022/01/26 13:37:24;;;;;;;;;;;;;;;;;;5029418;28;19920;-70
2022/01/26 13:58:20;;;;;;;;;;;;;;;;;;4986612;28;19973;-70
2022/01/26 14:00:55;;;;;;;;;;;;;;;;;;4987553;28;19932;-70
2022/01/26 14:03:22;;;;;;;;;;;;;;;;;;4986298;28;19929;-70
2022/01/26 14:05:48;;;;;;;;;;;;;;;;;;4986761;28;20096;-70
2022/01/26 14:08:13;;;;;;;;;;;;;;;;;;4990467;28;19914;-70
2022/01/26 14:10:38;;;;;;;;;;;;;;;;;;4991959;28;20431;-70
2022/01/26 14:13:03;;;;;;;;;;;;;;;;;;4991091;28;20011;-70
2022/01/26 14:15:39;;;;;;;;;;;;;;;;;;4989604;28;19925;-70
2022/01/26 14:23:17;;;;;;;;;;;;;;;;;;4992019;28;19928;-70
2022/01/26 14:25:45;;;;;;;;;;;;;;;;;;4978544;28;20417;-70
2022/01/26 14:28:13;;;;;;;;;;;;;;;;;;4994569;28;19913;-70
2022/01/26 14:33:46;;;;;;;;;;;;;;;;;;4999099;28;19917;-70
2022/01/26 15:48:44;;;;;;;;;;;;;;;;;;4970211;28;20191;-70
2022/01/26 15:58:32;;;;;;;;;;;;;;;;;;4968979;28;20290;-69
2022/01/26 16:19:59;;;;;;;;;;;;;;;;;;5011645;28;20374;-70
2022/01/26 16:36:11;;;;;;;;;;;;;;;;;;5018957;28;20263;-70
2022/01/26 16:38:47;;;;;;;;;;;;;;;;;;5019142;28;19919;-70
2022/01/26 17:11:24;;;;;;;;;;;;;;;;;;5037556;28;19978;-70
2022/01/26 18:04:41;;;;;;;;;;;;;;;;;;5033850;28;19927;-70
2022/01/26 18:17:58;;;;;;;;;;;;;;;;;;4973655;28;19922;-70
2022/01/26 18:50:15;;;;;;;;;;;;;;;;;;4920105;29;19925;-70
2022/01/26 18:52:40;;;;;;;;;;;;;;;;;;4922746;29;19961;-70
2022/01/26 18:55:05;;;;;;;;;;;;;;;;;;4916353;29;19915;-70
2022/01/26 18:57:30;;;;;;;;;;;;;;;;;;4914329;29;20550;-71
2022/01/26 18:59:56;;;;;;;;;;;;;;;;;;4914307;29;19915;-70
2022/01/26 19:02:24;;;;;;;;;;;;;;;;;;4915967;29;20134;-70
2022/01/26 19:04:49;;;;;;;;;;;;;;;;;;4918601;29;19966;-70
2022/01/26 19:07:15;;;;;;;;;;;;;;;;;;4948139;28;19918;-70
2022/01/26 19:09:43;;;;;;;;;;;;;;;;;;4968850;28;19914;-70
2022/01/26 19:12:11;;;;;;;;;;;;;;;;;;4970159;28;19921;-70
2022/01/26 19:14:39;;;;;;;;;;;;;;;;;;4978580;28;20012;-70
2022/01/26 19:17:14;;;;;;;;;;;;;;;;;;5033714;28;19925;-70
2022/01/26 19:25:14;;;;;;;;;;;;;;;;;;5032905;28;19998;-70
2022/01/26 19:32:57;;;;;;;;;;;;;;;;;;5032881;28;20095;-71
2022/01/26 19:51:33;;;;;;;;;;;;;;;;;;4983913;28;19921;-70
2022/01/26 19:53:58;;;;;;;;;;;;;;;;;;4984274;28;19921;-70
2022/01/26 19:56:23;;;;;;;;;;;;;;;;;;4988571;28;19913;-70
2022/01/26 19:58:48;;;;;;;;;;;;;;;;;;4982662;28;19924;-70
2022/01/26 20:01:14;;;;;;;;;;;;;;;;;;4984953;28;20487;-70
2022/01/26 20:03:39;;;;;;;;;;;;;;;;;;4984263;28;19925;-70
2022/01/26 20:06:07;;;;;;;;;;;;;;;;;;4978385;28;20032;-70
2022/01/26 20:08:40;;;;;;;;;;;;;;;;;;4982315;28;21748;-70
2022/01/26 20:11:14;;;;;;;;;;;;;;;;;;4985674;28;20209;-70
2022/01/26 20:13:41;;;;;;;;;;;;;;;;;;4985499;28;19921;-70
2022/01/26 20:16:06;;;;;;;;;;;;;;;;;;4981226;28;20181;-70
2022/01/26 20:18:31;;;;;;;;;;;;;;;;;;4979655;28;20477;-70
2022/01/26 20:21:02;;;;;;;;;;;;;;;;;;4975837;28;20013;-70
2022/01/26 20:23:31;;;;;;;;;;;;;;;;;;4983441;28;19971;-70
2022/01/26 20:25:59;;;;;;;;;;;;;;;;;;4981617;28;19922;-70
2022/01/26 20:28:26;;;;;;;;;;;;;;;;;;5002197;28;20445;-70
2022/01/26 20:30:51;;;;;;;;;;;;;;;;;;5038910;28;19935;-70
2022/01/26 20:33:17;;;;;;;;;;;;;;;;;;5038383;28;20369;-70
2022/01/26 20:35:42;;;;;;;;;;;;;;;;;;5039283;28;19955;-70
2022/01/26 20:38:07;;;;;;;;;;;;;;;;;;5036022;28;19913;-70
2022/01/26 20:40:32;;;;;;;;;;;;;;;;;;5031083;28;19921;-71
2022/01/26 20:42:57;;;;;;;;;;;;;;;;;;5031123;28;19913;-70
2022/01/26 20:45:23;;;;;;;;;;;;;;;;;;5030678;28;20410;-70
2022/01/26 20:47:48;;;;;;;;;;;;;;;;;;5030113;28;19981;-70
2022/01/26 20:50:13;;;;;;;;;;;;;;;;;;5031426;28;20327;-70
2022/01/26 20:52:39;;;;;;;;;;;;;;;;;;5031536;28;20324;-70
2022/01/26 20:55:04;;;;;;;;;;;;;;;;;;5031348;28;20156;-71
2022/01/26 20:57:30;;;;;;;;;;;;;;;;;;5030843;28;20056;-70
2022/01/26 20:59:55;;;;;;;;;;;;;;;;;;5030851;28;20281;-70
2022/01/26 21:02:20;;;;;;;;;;;;;;;;;;5030397;28;19921;-71
2022/01/26 21:04:45;;;;;;;;;;;;;;;;;;5039134;28;19938;-70
2022/01/26 21:07:10;;;;;;;;;;;;;;;;;;5039181;28;19925;-70
2022/01/26 21:09:35;;;;;;;;;;;;;;;;;;5039023;28;20129;-71
2022/01/26 21:12:01;;;;;;;;;;;;;;;;;;5020687;28;19959;-71
2022/01/26 21:14:26;;;;;;;;;;;;;;;;;;5031115;28;19964;-70
2022/01/26 21:16:51;;;;;;;;;;;;;;;;;;5029887;28;20258;-71
2022/01/26 21:19:16;;;;;;;;;;;;;;;;;;5031370;28;19970;-71
2022/01/26 21:21:41;;;;;;;;;;;;;;;;;;5031947;28;20221;-71
2022/01/26 21:24:06;;;;;;;;;;;;;;;;;;5031156;28;19913;-70
2022/01/26 21:26:31;;;;;;;;;;;;;;;;;;5031433;28;20062;-71
2022/01/26 21:28:56;;;;;;;;;;;;;;;;;;5032656;28;19917;-70
2022/01/26 21:31:22;;;;;;;;;;;;;;;;;;5027848;28;20022;-70
2022/01/26 21:33:48;;;;;;;;;;;;;;;;;;5031580;28;19921;-70
2022/01/26 21:36:14;;;;;;;;;;;;;;;;;;5030719;28;20404;-71
2022/01/26 21:38:40;;;;;;;;;;;;;;;;;;5031291;28;20125;-70
2022/01/26 21:41:05;;;;;;;;;;;;;;;;;;5030699;28;19924;-70
2022/01/26 21:43:30;;;;;;;;;;;;;;;;;;5031771;28;20098;-70
2022/01/26 21:45:56;;;;;;;;;;;;;;;;;;5031203;28;19986;-70
2022/01/26 21:48:21;;;;;;;;;;;;;;;;;;5030990;28;19917;-70
2022/01/26 21:50:46;;;;;;;;;;;;;;;;;;5030976;28;19920;-70
2022/01/26 21:53:11;;;;;;;;;;;;;;;;;;5031512;28;19913;-70
2022/01/26 21:55:37;;;;;;;;;;;;;;;;;;5030858;28;20003;-70
2022/01/26 21:58:02;;;;;;;;;;;;;;;;;;5030402;28;20165;-69
2022/01/26 22:00:28;;;;;;;;;;;;;;;;;;5029811;28;19952;-70
2022/01/26 22:02:55;;;;;;;;;;;;;;;;;;5028095;28;20075;-70
2022/01/26 22:05:20;;;;;;;;;;;;;;;;;;5028551;28;19921;-70
2022/01/26 22:07:45;;;;;;;;;;;;;;;;;;5031119;28;19913;-70
2022/01/26 22:10:10;;;;;;;;;;;;;;;;;;5032294;28;19920;-70
2022/01/26 22:12:35;;;;;;;;;;;;;;;;;;5030552;28;19913;-70
2022/01/26 22:15:01;;;;;;;;;;;;;;;;;;5031186;28;19917;-70
2022/01/26 22:17:26;;;;;;;;;;;;;;;;;;5030889;28;20401;-70
2022/01/26 22:19:51;;;;;;;;;;;;;;;;;;5030340;28;20117;-70
2022/01/26 22:22:16;;;;;;;;;;;;;;;;;;5029783;28;19923;-70
2022/01/26 22:24:42;;;;;;;;;;;;;;;;;;5029930;28;20084;-70
2022/01/26 22:27:07;;;;;;;;;;;;;;;;;;5033091;28;20426;-70
2022/01/26 22:29:32;;;;;;;;;;;;;;;;;;5036987;28;19913;-70
2022/01/26 22:31:57;;;;;;;;;;;;;;;;;;5038043;28;20328;-70
2022/01/26 22:34:22;;;;;;;;;;;;;;;;;;5035939;28;19951;-70
2022/01/26 22:36:48;;;;;;;;;;;;;;;;;;5036247;28;20401;-70
2022/01/26 22:39:13;;;;;;;;;;;;;;;;;;5030742;28;20281;-70
2022/01/26 22:41:38;;;;;;;;;;;;;;;;;;5035088;28;19916;-70
2022/01/26 22:44:03;;;;;;;;;;;;;;;;;;5033851;28;20371;-70
2022/01/26 22:46:29;;;;;;;;;;;;;;;;;;5033111;28;19917;-70
2022/01/26 22:48:54;;;;;;;;;;;;;;;;;;5033402;28;19998;-70
2022/01/26 22:51:19;;;;;;;;;;;;;;;;;;5032837;28;20234;-71
2022/01/26 22:53:44;;;;;;;;;;;;;;;;;;5033585;28;19977;-70
2022/01/26 22:56:09;;;;;;;;;;;;;;;;;;5033754;28;20019;-70
2022/01/26 22:58:35;;;;;;;;;;;;;;;;;;5029949;28;20011;-70
2022/01/26 23:03:44;;;;;;;;;;;;;;;;;;5035671;28;19992;-70
2022/01/26 23:06:13;;;;;;;;;;;;;;;;;;5039686;28;19916;-70
2022/01/26 23:08:38;;;;;;;;;;;;;;;;;;5032476;28;20064;-70
2022/01/26 23:11:03;;;;;;;;;;;;;;;;;;5031892;28;19913;-70
2022/01/26 23:13:28;;;;;;;;;;;;;;;;;;5031163;28;19979;-70
2022/01/26 23:15:53;;;;;;;;;;;;;;;;;;5031755;28;19917;-70
2022/01/26 23:18:18;;;;;;;;;;;;;;;;;;5031222;28;19916;-70
2022/01/26 23:20:43;;;;;;;;;;;;;;;;;;5030898;28;19928;-70
2022/01/26 23:23:10;;;;;;;;;;;;;;;;;;5032516;28;19919;-70
2022/01/26 23:25:47;;;;;;;;;;;;;;;;;;5033458;28;20000;-70
2022/01/26 23:31:04;;;;;;;;;;;;;;;;;;5032072;28;19920;-70
2022/01/26 23:42:03;;;;;;;;;;;;;;;;;;5031830;28;19932;-70
2022/01/26 23:57:21;;;;;;;;;;;;;;;;;;5030520;28;19928;-70
